Time;durP1;ratioP1;P1;durP2;ratioP2;P2;SDS_P1;SDS_P2;PMS_P1;PMS_P2;Temp;Humidity;BMP_temperature;BMP_pressure;BME280_temperature;BME280_humidity;BME280_pressure;Samples;Min_cycle;Max_cycle;Signal;HPM_P1;HPM_P2
2022/05/23 00:01:43;;;;;;;;;;;19.40;65.40;;;;;;5055003;28;853;-70
2022/05/23 00:04:08;;;;;;;;;;;19.40;65.40;;;;;;5054974;28;1971;-70
2022/05/23 00:06:34;;;;;;;;;;;19.40;65.40;;;;;;5055031;28;904;-69
2022/05/23 00:08:59;;;;;;;;;;;19.40;65.40;;;;;;5037371;28;1167;-69
2022/05/23 00:11:25;;;;;;;;;;;19.40;65.40;;;;;;5054651;28;1070;-69
2022/05/23 00:13:50;;;;;;;;;;;19.40;65.40;;;;;;5054802;28;879;-69
2022/05/23 00:16:19;;;;;;;;;;;19.40;65.40;;;;;;5054814;28;1291;-70
2022/05/23 00:18:45;;;;;;;;;;;19.40;65.40;;;;;;5053522;28;1127;-69
2022/05/23 00:21:10;;;;;;;;;;;19.40;65.40;;;;;;5054650;28;837;-70
2022/05/23 00:23:36;;;;;;;;;;;19.40;65.40;;;;;;5054385;28;801;-69
2022/05/23 00:26:01;;;;;;;;;;;19.40;65.50;;;;;;5053456;28;2240;-69
2022/05/23 00:28:26;;;;;;;;;;;19.40;65.40;;;;;;5054102;28;1314;-69
2022/05/23 00:30:52;;;;;;;;;;;19.40;65.50;;;;;;5060553;28;1002;-68
2022/05/23 00:36:02;;;;;;;;;;;19.40;65.50;;;;;;5053403;28;1247;-68
2022/05/23 00:38:27;;;;;;;;;;;19.40;65.50;;;;;;5054649;28;962;-69
2022/05/23 00:43:13;;;;;;;;;;;19.40;65.50;;;;;;5052797;28;936;-70
2022/05/23 00:43:41;;;;;;;;;;;19.40;65.50;;;;;;5053004;28;1040;-70
2022/05/23 00:46:06;;;;;;;;;;;19.40;65.50;;;;;;5036173;28;1898;-69
2022/05/23 00:48:32;;;;;;;;;;;19.40;65.50;;;;;;5054205;28;904;-70
2022/05/23 00:50:58;;;;;;;;;;;19.40;65.50;;;;;;5054280;28;883;-70
2022/05/23 00:53:30;;;;;;;;;;;19.40;65.50;;;;;;5052985;28;821;-68
2022/05/23 00:55:56;;;;;;;;;;;19.40;65.50;;;;;;5081234;22;1914;-75
2022/05/23 00:58:21;;;;;;;;;;;19.40;65.50;;;;;;5072431;28;1167;-75
2022/05/23 01:00:47;;;;;;;;;;;19.40;65.50;;;;;;5072594;28;734;-75
2022/05/23 01:03:13;;;;;;;;;;;19.40;65.50;;;;;;5056016;28;1273;-75
2022/05/23 01:05:38;;;;;;;;;;;19.40;65.50;;;;;;5072639;28;1972;-74
2022/05/23 01:08:04;;;;;;;;;;;19.40;65.60;;;;;;5072825;28;793;-75
2022/05/23 01:10:30;;;;;;;;;;;19.40;65.60;;;;;;5072306;28;1182;-75
2022/05/23 01:12:55;;;;;;;;;;;19.40;65.60;;;;;;5072524;28;1229;-73
2022/05/23 01:15:22;;;;;;;;;;;19.40;65.60;;;;;;5072569;28;1302;-73
2022/05/23 01:17:48;;;;;;;;;;;19.40;65.60;;;;;;5074487;28;1110;-73
2022/05/23 01:20:13;;;;;;;;;;;19.40;65.60;;;;;;5092542;28;823;-74
2022/05/23 01:22:38;;;;;;;;;;;19.40;65.60;;;;;;5092450;28;1220;-74
2022/05/23 01:25:13;;;;;;;;;;;19.40;65.60;;;;;;5093685;28;1902;-73
2022/05/23 01:27:38;;;;;;;;;;;19.40;65.60;;;;;;5093484;28;1080;-73
2022/05/23 01:30:04;;;;;;;;;;;19.40;65.60;;;;;;5078643;28;1121;-73
2022/05/23 01:32:29;;;;;;;;;;;19.40;65.60;;;;;;5073256;28;857;-74
2022/05/23 01:34:55;;;;;;;;;;;19.40;65.60;;;;;;5073596;28;1182;-74
2022/05/23 01:37:20;;;;;;;;;;;19.40;65.60;;;;;;5073118;28;1303;-73
2022/05/23 01:39:46;;;;;;;;;;;19.40;65.60;;;;;;5072088;28;971;-74
2022/05/23 01:42:11;;;;;;;;;;;19.40;65.70;;;;;;5073009;28;896;-73
2022/05/23 01:44:37;;;;;;;;;;;19.40;65.60;;;;;;5073192;28;1898;-74
2022/05/23 01:47:09;;;;;;;;;;;19.40;65.60;;;;;;5071799;28;1212;-74
2022/05/23 01:49:35;;;;;;;;;;;19.40;65.70;;;;;;5073019;28;764;-72
2022/05/23 01:52:00;;;;;;;;;;;19.40;65.70;;;;;;5071668;28;820;-73
2022/05/23 01:54:25;;;;;;;;;;;19.40;65.70;;;;;;5072798;28;678;-74
2022/05/23 01:56:51;;;;;;;;;;;19.40;65.70;;;;;;5072673;28;1302;-74
2022/05/23 02:02:00;;;;;;;;;;;19.40;65.70;;;;;;5072749;28;671;-73
2022/05/23 02:04:27;;;;;;;;;;;19.40;65.70;;;;;;5054954;28;1910;-73
2022/05/23 02:06:53;;;;;;;;;;;19.40;65.70;;;;;;5071529;28;1318;-73
2022/05/23 02:09:26;;;;;;;;;;;19.40;65.70;;;;;;5072747;28;935;-73
2022/05/23 02:11:52;;;;;;;;;;;19.40;65.70;;;;;;5072785;28;974;-73
2022/05/23 02:14:17;;;;;;;;;;;19.40;65.70;;;;;;5071707;28;1113;-74
2022/05/23 02:16:42;;;;;;;;;;;19.40;65.70;;;;;;5071624;28;1235;-73
2022/05/23 02:19:08;;;;;;;;;;;19.40;65.70;;;;;;5072735;28;1106;-73
2022/05/23 02:21:33;;;;;;;;;;;19.40;65.80;;;;;;5072586;28;967;-72
2022/05/23 02:24:00;;;;;;;;;;;19.40;65.70;;;;;;5072612;28;1902;-73
2022/05/23 02:26:25;;;;;;;;;;;19.40;65.80;;;;;;5071517;28;1216;-73
2022/05/23 02:28:51;;;;;;;;;;;19.40;65.70;;;;;;5077106;28;1121;-72
2022/05/23 02:31:16;;;;;;;;;;;19.40;65.80;;;;;;5083849;28;1190;-71
2022/05/23 02:33:43;;;;;;;;;;;19.40;65.70;;;;;;5060381;28;1314;-75
2022/05/23 02:36:08;;;;;;;;;;;19.40;65.80;;;;;;5072686;28;1311;-75
2022/05/23 02:38:33;;;;;;;;;;;19.40;65.80;;;;;;5072275;28;824;-74
2022/05/23 02:40:59;;;;;;;;;;;19.40;65.80;;;;;;5072339;28;832;-72
2022/05/23 02:43:27;;;;;;;;;;;19.40;65.80;;;;;;5072557;28;785;-72
2022/05/23 02:45:52;;;;;;;;;;;19.40;65.80;;;;;;5071290;28;1913;-74
2022/05/23 02:48:17;;;;;;;;;;;19.40;65.80;;;;;;5071195;28;1007;-74
2022/05/23 02:50:43;;;;;;;;;;;19.40;65.80;;;;;;5070603;28;2285;-73
2022/05/23 02:53:08;;;;;;;;;;;19.40;65.80;;;;;;5072132;28;1402;-74
2022/05/23 02:55:34;;;;;;;;;;;19.40;65.80;;;;;;5071272;28;1266;-74
2022/05/23 02:57:59;;;;;;;;;;;19.40;65.80;;;;;;5072500;28;867;-74
2022/05/23 03:00:25;;;;;;;;;;;19.40;65.80;;;;;;5072256;28;1092;-74
2022/05/23 03:03:02;;;;;;;;;;;19.40;65.80;;;;;;5071001;28;1030;-74
2022/05/23 03:05:28;;;;;;;;;;;19.40;65.80;;;;;;5072292;28;1972;-74
2022/05/23 03:07:54;;;;;;;;;;;19.40;65.80;;;;;;5074837;28;836;-74
2022/05/23 03:10:19;;;;;;;;;;;19.40;65.80;;;;;;5074554;28;1188;-74
2022/05/23 03:12:45;;;;;;;;;;;19.40;65.90;;;;;;5075987;28;915;-74
2022/05/23 03:15:10;;;;;;;;;;;19.40;65.90;;;;;;5074727;28;1360;-74
2022/05/23 03:17:36;;;;;;;;;;;19.40;65.90;;;;;;5075922;28;1126;-73
2022/05/23 03:20:01;;;;;;;;;;;19.40;65.90;;;;;;5075488;28;907;-74
2022/05/23 03:27:55;;;;;;;;;;;19.40;65.90;;;;;;5074887;28;682;-74
2022/05/23 03:30:21;;;;;;;;;;;19.40;65.90;;;;;;5091061;28;1122;-74
2022/05/23 03:32:46;;;;;;;;;;;19.40;65.90;;;;;;5095098;28;1121;-74
2022/05/23 03:35:11;;;;;;;;;;;19.40;65.90;;;;;;5074582;28;1215;-74
2022/05/23 03:37:37;;;;;;;;;;;19.40;65.90;;;;;;5058120;28;815;-74
2022/05/23 03:40:03;;;;;;;;;;;19.40;65.90;;;;;;5075255;28;880;-74
2022/05/23 03:42:29;;;;;;;;;;;19.40;65.90;;;;;;5074042;28;1110;-74
2022/05/23 03:44:54;;;;;;;;;;;19.40;65.90;;;;;;5075501;28;1901;-74
2022/05/23 03:47:20;;;;;;;;;;;19.40;65.90;;;;;;5075062;28;1309;-74
2022/05/23 03:49:45;;;;;;;;;;;19.40;65.90;;;;;;5075295;28;710;-74
2022/05/23 03:52:11;;;;;;;;;;;19.40;65.90;;;;;;5075186;28;860;-74
2022/05/23 03:54:36;;;;;;;;;;;19.40;66.00;;;;;;5074369;28;730;-74
2022/05/23 03:57:02;;;;;;;;;;;19.40;66.00;;;;;;5074052;28;1183;-73
2022/05/23 03:59:27;;;;;;;;;;;19.40;66.00;;;;;;5073874;28;1038;-74
2022/05/23 04:01:54;;;;;;;;;;;19.40;66.00;;;;;;5074732;28;1015;-74
2022/05/23 04:04:20;;;;;;;;;;;19.40;66.00;;;;;;5075012;28;1970;-74
2022/05/23 04:06:46;;;;;;;;;;;19.40;66.00;;;;;;5073830;28;1278;-74
2022/05/23 04:09:11;;;;;;;;;;;19.40;66.80;;;;;;5074966;28;1097;-74
2022/05/23 04:11:36;;;;;;;;;;;19.40;66.00;;;;;;5056681;28;1252;-74
2022/05/23 04:14:02;;;;;;;;;;;19.40;66.00;;;;;;5075153;28;998;-74
2022/05/23 04:16:29;;;;;;;;;;;19.40;66.00;;;;;;5074317;28;1278;-74
2022/05/23 04:18:55;;;;;;;;;;;19.40;66.00;;;;;;5085200;28;1226;-73
2022/05/23 04:21:20;;;;;;;;;;;19.40;66.00;;;;;;5095232;28;820;-74
2022/05/23 04:23:46;;;;;;;;;;;19.40;66.00;;;;;;5095117;28;816;-74
2022/05/23 04:26:12;;;;;;;;;;;19.40;66.00;;;;;;5093638;28;1910;-73
2022/05/23 04:28:39;;;;;;;;;;;19.40;66.00;;;;;;5090891;28;1180;-74
2022/05/23 04:31:05;;;;;;;;;;;19.40;66.00;;;;;;5073111;28;892;-73
2022/05/23 04:36:14;;;;;;;;;;;19.40;66.10;;;;;;5074441;28;1279;-73
2022/05/23 04:38:40;;;;;;;;;;;19.40;66.10;;;;;;5073853;28;963;-73
2022/05/23 04:41:06;;;;;;;;;;;19.40;66.10;;;;;;5074244;28;1090;-73
2022/05/23 04:43:34;;;;;;;;;;;19.40;66.10;;;;;;5074581;28;978;-73
2022/05/23 04:46:00;;;;;;;;;;;19.40;66.10;;;;;;5073416;28;1902;-73
2022/05/23 04:51:09;;;;;;;;;;;19.40;66.10;;;;;;5073285;28;639;-73
2022/05/23 04:53:35;;;;;;;;;;;19.40;66.10;;;;;;5072969;28;829;-74
2022/05/23 04:56:00;;;;;;;;;;;19.40;66.10;;;;;;5072594;28;1214;-74
2022/05/23 04:58:26;;;;;;;;;;;19.40;66.10;;;;;;5072738;28;1124;-73
2022/05/23 05:00:53;;;;;;;;;;;19.40;66.10;;;;;;5072602;28;1116;-73
2022/05/23 05:03:19;;;;;;;;;;;19.40;66.10;;;;;;5072684;28;883;-73
2022/05/23 05:05:44;;;;;;;;;;;19.40;66.10;;;;;;5072545;28;1973;-73
2022/05/23 05:08:10;;;;;;;;;;;19.40;66.10;;;;;;5073707;28;919;-73
2022/05/23 05:10:35;;;;;;;;;;;19.40;66.20;;;;;;5073671;28;871;-73
2022/05/23 05:13:01;;;;;;;;;;;19.40;66.20;;;;;;5072526;28;896;-74
2022/05/23 05:15:26;;;;;;;;;;;19.40;66.20;;;;;;5065874;28;1757;-73
2022/05/23 05:17:52;;;;;;;;;;;19.40;66.10;;;;;;5073425;28;1124;-75
2022/05/23 05:20:21;;;;;;;;;;;19.40;66.10;;;;;;5073182;28;1141;-74
2022/05/23 05:22:46;;;;;;;;;;;19.40;66.10;;;;;;5072358;28;831;-72
2022/05/23 05:25:12;;;;;;;;;;;19.40;66.10;;;;;;5072003;28;1894;-72
2022/05/23 05:27:38;;;;;;;;;;;19.40;66.10;;;;;;5072525;28;824;-72
2022/05/23 05:30:04;;;;;;;;;;;19.40;66.10;;;;;;5085964;28;1138;-70
2022/05/23 05:32:50;;;;;;;;;;;19.40;66.10;;;;;;5092528;28;895;-71
2022/05/23 05:35:32;;;;;;;;;;;19.40;66.10;;;;;;5052188;28;1199;-71
2022/05/23 05:38:00;;;;;;;;;;;19.40;66.10;;;;;;5052098;28;892;-70
2022/05/23 05:40:26;;;;;;;;;;;19.40;66.10;;;;;;5051905;28;829;-71
2022/05/23 05:42:54;;;;;;;;;;;19.40;66.10;;;;;;5052069;28;1536;-70
2022/05/23 05:45:26;;;;;;;;;;;19.40;66.10;;;;;;5053058;28;1902;-70
2022/05/23 05:47:51;;;;;;;;;;;19.40;66.10;;;;;;5051900;28;1435;-71
2022/05/23 05:50:21;;;;;;;;;;;19.40;66.00;;;;;;5051399;28;952;-70
2022/05/23 05:52:47;;;;;;;;;;;19.40;66.00;;;;;;5051969;28;829;-71
2022/05/23 05:55:12;;;;;;;;;;;19.40;66.00;;;;;;5051684;28;1238;-70
2022/05/23 05:57:37;;;;;;;;;;;19.40;66.00;;;;;;5053031;28;1034;-70
2022/05/23 06:00:03;;;;;;;;;;;19.40;66.00;;;;;;5051605;28;908;-70
2022/05/23 06:02:29;;;;;;;;;;;19.40;66.00;;;;;;5051486;28;1311;-71
2022/05/23 06:04:54;;;;;;;;;;;19.40;66.00;;;;;;5052574;28;1906;-71
2022/05/23 06:12:49;;;;;;;;;;;19.40;66.00;;;;;;5051924;28;627;-71
2022/05/23 06:15:14;;;;;;;;;;;19.40;66.00;;;;;;5052494;28;1286;-72
2022/05/23 06:17:42;;;;;;;;;;;19.40;66.00;;;;;;5055199;28;1329;-71
2022/05/23 06:20:08;;;;;;;;;;;19.40;66.00;;;;;;5092891;28;836;-70
2022/05/23 06:22:33;;;;;;;;;;;19.40;66.00;;;;;;5091864;28;841;-70
2022/05/23 06:24:58;;;;;;;;;;;19.40;66.00;;;;;;5091636;28;1898;-72
2022/05/23 06:27:24;;;;;;;;;;;19.40;66.00;;;;;;5075342;28;1383;-75
2022/05/23 06:29:49;;;;;;;;;;;19.40;66.00;;;;;;5080001;28;1164;-75
2022/05/23 06:32:16;;;;;;;;;;;19.40;66.00;;;;;;5071565;28;1167;-75
2022/05/23 06:34:42;;;;;;;;;;;19.40;66.00;;;;;;5071408;28;1175;-76
2022/05/23 06:37:07;;;;;;;;;;;19.40;66.00;;;;;;5070528;28;2021;-76
2022/05/23 06:39:33;;;;;;;;;;;19.40;66.00;;;;;;5071576;28;1239;-76
2022/05/23 06:41:58;;;;;;;;;;;19.40;66.00;;;;;;5075125;28;1106;-75
2022/05/23 06:44:23;;;;;;;;;;;19.40;65.90;;;;;;5077093;28;1906;-77
2022/05/23 06:46:49;;;;;;;;;;;19.40;65.90;;;;;;5077290;28;1213;-77
2022/05/23 06:49:14;;;;;;;;;;;19.40;66.00;;;;;;5077495;28;1133;-76
2022/05/23 06:51:40;;;;;;;;;;;19.40;66.00;;;;;;5077202;28;924;-76
2022/05/23 06:54:06;;;;;;;;;;;19.40;65.90;;;;;;5076092;28;828;-76
2022/05/23 06:56:32;;;;;;;;;;;19.40;65.90;;;;;;5096637;22;3705;-77
2022/05/23 06:58:58;;;;;;;;;;;19.40;65.60;;;;;;5046313;28;1242;-78
2022/05/23 07:01:23;;;;;;;;;;;19.40;65.60;;;;;;5027714;28;1342;-78
2022/05/23 07:03:49;;;;;;;;;;;19.40;65.70;;;;;;5022047;28;1181;-78
2022/05/23 07:14:27;;;;;;;;;;;19.40;65.70;;;;;;5041906;28;665;-78
2022/05/23 07:16:53;;;;;;;;;;;19.40;65.80;;;;;;5021681;28;1308;-79
2022/05/23 07:19:18;;;;;;;;;;;19.40;65.80;;;;;;5037718;28;1349;-78
2022/05/23 07:21:44;;;;;;;;;;;19.40;65.80;;;;;;5053868;28;1229;-78
2022/05/23 07:24:09;;;;;;;;;;;19.40;65.80;;;;;;5054613;28;934;-78
2022/05/23 07:26:37;;;;;;;;;;;19.40;65.80;;;;;;5055373;28;1200;-78
2022/05/23 07:29:02;;;;;;;;;;;19.40;65.80;;;;;;5054299;28;1227;-78
2022/05/23 07:31:29;;;;;;;;;;;19.40;65.80;;;;;;5053949;28;1295;-82
2022/05/23 07:33:54;;;;;;;;;;;19.40;65.80;;;;;;5033785;28;1295;-80
2022/05/23 07:36:19;;;;;;;;;;;19.40;65.80;;;;;;5049961;28;1080;-78
2022/05/23 07:38:45;;;;;;;;;;;19.40;65.80;;;;;;5033891;28;1200;-79
2022/05/23 07:41:10;;;;;;;;;;;19.40;65.80;;;;;;5033261;28;1199;-79
2022/05/23 07:43:36;;;;;;;;;;;19.40;65.80;;;;;;5033544;28;1217;-79
2022/05/23 07:46:09;;;;;;;;;;;19.40;65.80;;;;;;5050443;28;1898;-80
2022/05/23 07:48:45;;;;;;;;;;;19.40;65.80;;;;;;5033973;28;1228;-80
2022/05/23 07:51:11;;;;;;;;;;;19.40;65.80;;;;;;5048812;28;1383;-80
2022/05/23 08:01:49;;;;;;;;;;;19.40;65.80;;;;;;5047903;28;1455;-79
2022/05/23 08:04:14;;;;;;;;;;;19.40;65.80;;;;;;5050202;28;1906;-80
2022/05/23 08:06:40;;;;;;;;;;;19.40;65.80;;;;;;5034020;28;1212;-79
2022/05/23 08:09:07;;;;;;;;;;;19.40;65.80;;;;;;5033689;28;1100;-79
2022/05/23 08:11:32;;;;;;;;;;;19.40;65.80;;;;;;5032444;28;1239;-80
2022/05/23 08:13:58;;;;;;;;;;;19.40;65.80;;;;;;5049959;28;1156;-80
2022/05/23 08:16:23;;;;;;;;;;;19.40;65.80;;;;;;5049592;28;1370;-80
2022/05/23 08:18:49;;;;;;;;;;;19.40;65.80;;;;;;5042421;28;1150;-80
2022/05/23 08:21:16;;;;;;;;;;;19.40;65.80;;;;;;5032150;28;1324;-80
2022/05/23 08:23:42;;;;;;;;;;;19.40;65.80;;;;;;5032485;28;1214;-80
2022/05/23 08:26:07;;;;;;;;;;;19.40;65.80;;;;;;5032809;28;1906;-79
2022/05/23 08:28:33;;;;;;;;;;;19.40;65.80;;;;;;5032098;28;1143;-79
2022/05/23 08:30:58;;;;;;;;;;;19.40;65.80;;;;;;5031572;28;1290;-80
2022/05/23 08:33:24;;;;;;;;;;;19.40;65.80;;;;;;5035338;28;1151;-80
2022/05/23 08:35:49;;;;;;;;;;;19.40;65.80;;;;;;5032297;28;1282;-79
2022/05/23 08:38:15;;;;;;;;;;;19.40;65.80;;;;;;5032359;28;707;-79
2022/05/23 08:40:59;;;;;;;;;;;19.40;65.80;;;;;;5031739;28;1166;-79
2022/05/23 08:43:29;;;;;;;;;;;19.40;65.80;;;;;;5032415;28;1335;-79
2022/05/23 08:45:55;;;;;;;;;;;19.40;65.80;;;;;;5049432;28;1959;-80
2022/05/23 08:48:39;;;;;;;;;;;19.40;65.80;;;;;;5049519;28;1338;-79
2022/05/23 08:51:15;;;;;;;;;;;19.40;65.80;;;;;;5051689;28;1260;-79
2022/05/23 08:53:41;;;;;;;;;;;19.40;65.90;;;;;;5051004;28;1275;-79
2022/05/23 08:56:11;;;;;;;;;;;19.40;65.80;;;;;;5033644;28;1352;-79
2022/05/23 08:58:38;;;;;;;;;;;19.40;65.80;;;;;;5049305;28;1130;-77
2022/05/23 09:01:14;;;;;;;;;;;19.40;65.80;;;;;;5051482;28;1322;-77
2022/05/23 09:03:41;;;;;;;;;;;19.40;65.80;;;;;;5049495;28;2481;-78
2022/05/23 09:06:26;;;;;;;;;;;19.40;65.80;;;;;;5050395;28;1906;-78
2022/05/23 09:08:55;;;;;;;;;;;19.40;65.80;;;;;;5051271;28;1167;-78
2022/05/23 09:11:30;;;;;;;;;;;19.40;65.90;;;;;;5050461;28;1302;-79
2022/05/23 09:13:55;;;;;;;;;;;19.40;65.80;;;;;;5034781;28;1303;-78
2022/05/23 09:16:21;;;;;;;;;;;19.40;65.80;;;;;;5050517;28;1287;-80
2022/05/23 09:18:48;;;;;;;;;;;19.40;65.80;;;;;;5043668;28;1298;-79
2022/05/23 09:21:13;;;;;;;;;;;19.40;65.80;;;;;;5017661;28;1266;-78
2022/05/23 09:23:47;;;;;;;;;;;19.40;65.90;;;;;;5035097;28;1501;-78
2022/05/23 09:26:15;;;;;;;;;;;19.40;65.80;;;;;;5034262;28;1955;-79
2022/05/23 09:28:40;;;;;;;;;;;19.40;65.80;;;;;;5017233;28;1188;-78
2022/05/23 09:31:06;;;;;;;;;;;19.40;65.80;;;;;;5017936;28;1293;-80
2022/05/23 09:33:31;;;;;;;;;;;19.40;65.80;;;;;;5040695;28;1334;-78
2022/05/23 09:36:07;;;;;;;;;;;19.40;65.80;;;;;;5053831;28;835;-80
2022/05/23 09:38:33;;;;;;;;;;;19.40;65.90;;;;;;5054330;28;1242;-80
2022/05/23 09:40:59;;;;;;;;;;;19.40;65.80;;;;;;5044287;28;1715;-79
2022/05/23 09:49:10;;;;;;;;;;;19.40;65.80;;;;;;5034461;28;705;-78
2022/05/23 09:51:54;;;;;;;;;;;19.40;65.80;;;;;;5034319;28;1239;-79
2022/05/23 09:54:23;;;;;;;;;;;19.40;65.80;;;;;;5052218;28;1152;-78
2022/05/23 09:56:49;;;;;;;;;;;19.40;65.80;;;;;;5034432;28;1317;-78
2022/05/23 09:59:22;;;;;;;;;;;19.40;65.80;;;;;;5034419;28;1203;-78
2022/05/23 10:01:48;;;;;;;;;;;19.40;65.80;;;;;;5033558;28;1291;-78
2022/05/23 10:04:14;;;;;;;;;;;19.40;65.80;;;;;;5033465;28;1213;-80
2022/05/23 10:06:48;;;;;;;;;;;19.40;65.80;;;;;;5034784;28;1910;-78
2022/05/23 10:09:24;;;;;;;;;;;19.30;65.80;;;;;;5051832;28;1160;-77
2022/05/23 10:11:54;;;;;;;;;;;19.40;65.80;;;;;;5034582;28;1308;-78
2022/05/23 10:14:19;;;;;;;;;;;19.40;65.80;;;;;;5033908;28;1308;-78
2022/05/23 10:16:48;;;;;;;;;;;19.40;65.80;;;;;;5035104;28;1207;-79
2022/05/23 10:19:31;;;;;;;;;;;19.40;65.80;;;;;;5045287;28;1343;-79
2022/05/23 10:22:06;;;;;;;;;;;19.40;65.80;;;;;;5050759;28;1334;-79
2022/05/23 10:24:31;;;;;;;;;;;19.40;65.80;;;;;;5035121;28;1871;-78
2022/05/23 10:26:59;;;;;;;;;;;19.40;65.80;;;;;;5051615;28;2270;-79
2022/05/23 10:29:46;;;;;;;;;;;19.40;65.80;;;;;;5053368;28;1209;-79
2022/05/23 10:32:12;;;;;;;;;;;19.40;65.80;;;;;;5051103;28;1280;-79
2022/05/23 10:34:38;;;;;;;;;;;19.40;65.80;;;;;;5030613;28;1232;-78
2022/05/23 10:37:05;;;;;;;;;;;19.40;65.80;;;;;;5041292;28;1315;-78
2022/05/23 10:42:17;;;;;;;;;;;19.40;65.90;;;;;;5056412;28;625;-79
2022/05/23 10:44:52;;;;;;;;;;;19.40;65.80;;;;;;5039153;28;1947;-80
2022/05/23 10:47:37;;;;;;;;;;;19.30;65.70;;;;;;5053562;28;1317;-77
2022/05/23 10:50:14;;;;;;;;;;;19.40;65.80;;;;;;5050057;28;1278;-79
2022/05/23 10:53:00;;;;;;;;;;;19.40;65.80;;;;;;5050944;28;1099;-87
2022/05/23 10:55:29;;;;;;;;;;;19.40;65.80;;;;;;5033487;28;1275;-78
2022/05/23 10:57:59;;;;;;;;;;;19.40;65.80;;;;;;5050118;28;1144;-78
2022/05/23 11:00:40;;;;;;;;;;;19.40;65.90;;;;;;5050061;28;1225;-78
2022/05/23 11:03:32;;;;;;;;;;;19.40;65.80;;;;;;5050684;28;1258;-79
2022/05/23 11:06:06;;;;;;;;;;;19.40;65.80;;;;;;5031578;28;1958;-77
2022/05/23 11:08:32;;;;;;;;;;;19.40;65.80;;;;;;5050729;28;1192;-78
2022/05/23 11:11:00;;;;;;;;;;;19.40;65.80;;;;;;5051332;28;1373;-78
2022/05/23 11:13:41;;;;;;;;;;;19.40;65.90;;;;;;5050627;28;1079;-77
2022/05/23 11:16:25;;;;;;;;;;;19.40;65.80;;;;;;5050881;28;1017;-77
2022/05/23 11:18:57;;;;;;;;;;;19.40;65.80;;;;;;5057853;28;1491;-77
2022/05/23 11:21:25;;;;;;;;;;;19.40;65.80;;;;;;5049565;28;1290;-78
2022/05/23 11:23:52;;;;;;;;;;;19.40;65.80;;;;;;5067121;28;1163;-78
2022/05/23 11:26:20;;;;;;;;;;;19.40;65.80;;;;;;5067497;28;1957;-79
2022/05/23 11:34:25;;;;;;;;;;;19.40;65.80;;;;;;5061963;28;1150;-78
2022/05/23 11:36:57;;;;;;;;;;;19.40;65.80;;;;;;5055800;28;1409;-78
2022/05/23 11:39:42;;;;;;;;;;;19.40;65.80;;;;;;5055774;28;1331;-79
2022/05/23 11:42:14;;;;;;;;;;;19.40;65.80;;;;;;5055698;28;1175;-78
2022/05/23 11:44:43;;;;;;;;;;;19.40;65.80;;;;;;5054912;28;1961;-76
2022/05/23 11:47:42;;;;;;;;;;;19.30;65.70;;;;;;5055685;28;1282;-78
2022/05/23 11:50:16;;;;;;;;;;;19.40;65.90;;;;;;5015696;28;1229;-78
2022/05/23 11:53:02;;;;;;;;;;;19.40;65.80;;;;;;5050062;28;2705;-78
2022/05/23 11:55:50;;;;;;;;;;;19.40;65.80;;;;;;5036933;28;1219;-76
2022/05/23 11:58:26;;;;;;;;;;;19.40;65.80;;;;;;5048569;28;1181;-78
2022/05/23 12:01:05;;;;;;;;;;;19.40;65.80;;;;;;5050271;28;1383;-78
2022/05/23 12:03:49;;;;;;;;;;;19.40;65.80;;;;;;5051838;28;1366;-77
2022/05/23 12:06:19;;;;;;;;;;;19.40;65.80;;;;;;5054017;28;1965;-78
2022/05/23 12:08:57;;;;;;;;;;;19.40;65.80;;;;;;5054209;28;1108;-78
2022/05/23 12:11:22;;;;;;;;;;;19.40;65.80;;;;;;5053486;28;1335;-77
2022/05/23 12:13:51;;;;;;;;;;;19.40;65.80;;;;;;5054275;28;1331;-80
2022/05/23 12:16:32;;;;;;;;;;;19.40;65.80;;;;;;5054336;28;1384;-79
2022/05/23 12:19:05;;;;;;;;;;;19.40;65.80;;;;;;5053426;28;1295;-78
2022/05/23 12:21:34;;;;;;;;;;;19.40;65.80;;;;;;5052633;28;1368;-79
2022/05/23 12:24:18;;;;;;;;;;;19.40;65.80;;;;;;5053112;28;1136;-80
2022/05/23 12:26:46;;;;;;;;;;;19.40;65.80;;;;;;5053142;28;1897;-81
2022/05/23 12:29:20;;;;;;;;;;;19.40;65.80;;;;;;5052976;28;1217;-80
2022/05/23 12:32:05;;;;;;;;;;;19.40;65.80;;;;;;5052782;28;1243;-81
2022/05/23 12:34:31;;;;;;;;;;;19.40;65.80;;;;;;5053306;28;1174;-81
2022/05/23 12:36:56;;;;;;;;;;;19.40;65.80;;;;;;5052950;28;1260;-80
2022/05/23 12:39:29;;;;;;;;;;;19.40;65.80;;;;;;5033048;28;2010;-80
2022/05/23 12:42:14;;;;;;;;;;;19.40;65.80;;;;;;5044395;28;1373;-81
2022/05/23 12:44:39;;;;;;;;;;;19.40;65.80;;;;;;5051971;28;1902;-80
2022/05/23 12:47:09;;;;;;;;;;;19.40;65.80;;;;;;5053521;28;1492;-78
2022/05/23 12:49:34;;;;;;;;;;;19.40;65.80;;;;;;5049708;28;1261;-78
2022/05/23 12:52:12;;;;;;;;;;;19.40;65.80;;;;;;5032649;28;1213;-78
2022/05/23 12:54:40;;;;;;;;;;;19.40;65.80;;;;;;5033460;28;1203;-78
2022/05/23 12:57:25;;;;;;;;;;;19.30;65.70;;;;;;5053498;22;2087;-73
2022/05/23 12:59:50;;;;;;;;;;;19.30;65.70;;;;;;5050187;28;1681;-73
2022/05/23 13:02:18;;;;;;;;;;;19.40;65.80;;;;;;5045915;28;1170;-73
2022/05/23 13:04:47;;;;;;;;;;;19.40;65.80;;;;;;5031816;28;1921;-73
2022/05/23 13:07:17;;;;;;;;;;;19.40;65.80;;;;;;5050324;28;1336;-73
2022/05/23 13:09:54;;;;;;;;;;;19.40;65.80;;;;;;5020581;28;1112;-72
2022/05/23 13:12:21;;;;;;;;;;;19.40;65.80;;;;;;5019641;28;1335;-73
2022/05/23 13:14:47;;;;;;;;;;;19.40;65.80;;;;;;5051143;28;1082;-73
2022/05/23 13:17:12;;;;;;;;;;;19.40;65.80;;;;;;5045488;28;1284;-73
2022/05/23 13:22:31;;;;;;;;;;;19.40;65.80;;;;;;5018892;28;632;-73
2022/05/23 13:24:57;;;;;;;;;;;19.40;65.80;;;;;;5033572;28;1953;-73
2022/05/23 13:27:30;;;;;;;;;;;19.40;65.80;;;;;;5033659;28;1269;-73
2022/05/23 13:30:22;;;;;;;;;;;19.40;65.80;;;;;;5022111;28;1127;-73
2022/05/23 13:33:07;;;;;;;;;;;19.40;65.70;;;;;;5009876;28;1345;-73
2022/05/23 13:35:33;;;;;;;;;;;19.40;65.80;;;;;;5032953;28;1032;-73
2022/05/23 13:38:16;;;;;;;;;;;19.40;65.80;;;;;;5033371;28;1225;-73
2022/05/23 13:40:46;;;;;;;;;;;19.40;65.80;;;;;;5033141;28;872;-73
2022/05/23 13:43:12;;;;;;;;;;;19.40;65.80;;;;;;5015633;28;876;-73
2022/05/23 13:45:39;;;;;;;;;;;19.40;65.80;;;;;;5033253;28;1959;-73
2022/05/23 13:48:07;;;;;;;;;;;19.30;65.70;;;;;;5033434;28;1271;-73
2022/05/23 13:50:41;;;;;;;;;;;19.30;65.70;;;;;;5015019;28;856;-73
2022/05/23 13:53:07;;;;;;;;;;;19.40;65.80;;;;;;5015848;28;1212;-73
2022/05/23 13:55:38;;;;;;;;;;;19.40;65.80;;;;;;5015268;28;1102;-73
2022/05/23 13:58:07;;;;;;;;;;;19.40;65.80;;;;;;5015427;28;1237;-73
2022/05/23 14:00:34;;;;;;;;;;;19.40;65.80;;;;;;5015366;28;806;-73
2022/05/23 14:03:04;;;;;;;;;;;19.40;65.80;;;;;;4999078;28;1328;-73
2022/05/23 14:05:30;;;;;;;;;;;19.40;65.80;;;;;;5015580;28;1949;-73
2022/05/23 14:07:56;;;;;;;;;;;19.40;65.80;;;;;;5015558;28;1226;-73
2022/05/23 14:10:22;;;;;;;;;;;19.40;65.80;;;;;;5032661;28;849;-73
2022/05/23 14:12:48;;;;;;;;;;;19.40;65.70;;;;;;5015424;28;786;-72
2022/05/23 14:15:13;;;;;;;;;;;19.40;65.80;;;;;;5015300;28;889;-73
2022/05/23 14:17:43;;;;;;;;;;;19.40;65.80;;;;;;5033359;28;1258;-73
2022/05/23 14:20:14;;;;;;;;;;;19.40;65.80;;;;;;5015210;28;931;-73
2022/05/23 14:22:39;;;;;;;;;;;19.40;65.80;;;;;;5015305;28;881;-73
2022/05/23 14:25:16;;;;;;;;;;;19.40;65.80;;;;;;5015320;28;1902;-73
2022/05/23 14:27:51;;;;;;;;;;;19.40;65.70;;;;;;5015200;28;1296;-73
2022/05/23 14:30:19;;;;;;;;;;;19.40;65.80;;;;;;5014732;28;1163;-72
2022/05/23 14:32:52;;;;;;;;;;;19.40;65.80;;;;;;4998851;28;1213;-73
2022/05/23 14:35:19;;;;;;;;;;;19.40;65.80;;;;;;5015009;28;861;-72
2022/05/23 14:37:47;;;;;;;;;;;19.40;65.80;;;;;;5015069;28;1284;-73
2022/05/23 14:40:12;;;;;;;;;;;19.40;65.80;;;;;;5014963;28;754;-73
2022/05/23 14:42:48;;;;;;;;;;;19.30;65.70;;;;;;5015357;28;1047;-72
2022/05/23 14:45:31;;;;;;;;;;;19.40;65.80;;;;;;5015036;28;1950;-74
2022/05/23 14:48:00;;;;;;;;;;;19.40;65.80;;;;;;5032693;28;1208;-75
2022/05/23 14:50:30;;;;;;;;;;;19.40;65.80;;;;;;5032254;28;864;-73
2022/05/23 14:55:55;;;;;;;;;;;19.40;65.80;;;;;;5000465;28;1224;-73
2022/05/23 15:01:05;;;;;;;;;;;19.40;65.80;;;;;;5012372;28;1387;-70
2022/05/23 15:03:39;;;;;;;;;;;19.40;65.80;;;;;;4998244;28;1731;-70
2022/05/23 15:06:05;;;;;;;;;;;19.40;65.80;;;;;;5018253;28;1910;-69
2022/05/23 15:08:30;;;;;;;;;;;19.40;65.80;;;;;;5018193;28;1261;-69
2022/05/23 15:10:56;;;;;;;;;;;19.40;65.80;;;;;;5021257;28;1168;-69
2022/05/23 15:13:22;;;;;;;;;;;19.40;65.80;;;;;;5015423;28;1593;-68
2022/05/23 15:15:47;;;;;;;;;;;19.30;65.70;;;;;;5015130;28;984;-69
2022/05/23 15:18:14;;;;;;;;;;;19.40;65.80;;;;;;5017966;28;1229;-69
2022/05/23 15:20:40;;;;;;;;;;;19.40;65.80;;;;;;5035721;28;824;-69
2022/05/23 15:23:05;;;;;;;;;;;19.40;65.80;;;;;;5035557;28;1248;-69
2022/05/23 15:25:31;;;;;;;;;;;19.40;65.80;;;;;;5018116;28;1958;-68
2022/05/23 15:27:56;;;;;;;;;;;19.40;65.80;;;;;;5018238;28;1299;-70
2022/05/23 15:30:24;;;;;;;;;;;19.40;65.80;;;;;;5017739;28;1128;-69
2022/05/23 15:32:49;;;;;;;;;;;19.40;65.80;;;;;;5018109;28;1135;-69
2022/05/23 15:35:15;;;;;;;;;;;19.40;65.80;;;;;;5035617;28;986;-69
2022/05/23 15:37:40;;;;;;;;;;;19.40;65.80;;;;;;5017487;28;1319;-69
2022/05/23 15:40:06;;;;;;;;;;;19.40;65.80;;;;;;5017873;28;1408;-69
2022/05/23 15:42:33;;;;;;;;;;;19.40;65.80;;;;;;5018221;28;746;-69